Weather History for Pittsfield, IL

Change the Weather History Date:

Thursday, May 2, 2013

  Actual Average (KUIN) Record (KUIN)
Temperature  
Mean Temperature 54 °F 59 °F  
Max Temperature 67 °F 69 °F 90 °F (1928)
Min Temperature 41 °F 49 °F 29 °F (1908)
Degree Days  
Heating Degree Days 10 7  
Month to date heating degree days 15  
Since 1 July heating degree days 5445  
Cooling Degree Days 0 1  
Month to date cooling degree days 2  
Year to date cooling degree days 20  
Growing Degree Days 4 (Base 50)    
Moisture  
Dew Point 47 °F    
Average Humidity 77    
Maximum Humidity 91    
Minimum Humidity 66    
Precipitation  
Precipitation 0.23 in 0.12 in 1.76 in (1936)
Month to date precipitation 0.25  
Year to date precipitation 9.80  
Sea Level Pressure  
Sea Level Pressure 30.16 in    
Wind  
Wind Speed 9 mph (NW)    
Max Wind Speed 17 mph    
Max Gust Speed 25 mph    
Visibility 10 miles    
Events Rain    
T = Trace of Precipitation, MM = Missing Value Source: NWS Daily Summary

Daily Weather History Graph

Daily Weather History Graph

Search for Another Location

Airport:

Trip Planner

Search our weather history database for the weather conditions in past years. The results will help you decide how hot, cold, wet, or windy it might be!

Date:

Astronomy

May. 02, 2013 Rise Set
Actual Time 6:02 AM CDT 7:58 PM CDT
Civil Twilight 5:33 AM CDT 8:27 PM CDT
Nautical Twilight 4:57 AM CDT 9:03 PM CDT
Astronomical Twilight 4:19 AM CDT 9:42 PM CDT
Moon 1:48 AM CDT (5/2) 12:49 PM CDT (5/2)
Length of Visible Light 14h 54m
Length of Day
13h 56m
Waning Gibbous, 47% of the Moon is Illuminated
May 2
Waning Gibbous
May 9
New
May 17
First Quarter
May 24
Full
May 31
Last Quarter

Hourly Weather History & Observations

Time (CDT) Temp. Windchill Dew Point Humidity Pressure Visibility Wind Dir Wind Speed Gust Speed Precip Events Conditions
12:15 AM 68.0 °F - 59.4 °F 74% 30.10 in 10.0 mi SE 4.6 mph - N/A   Scattered Clouds
12:35 AM 68.4 °F - 59.4 °F 73% 30.10 in 10.0 mi SE 3.5 mph - N/A   Scattered Clouds
12:55 AM 67.6 °F - 59.5 °F 75% 30.10 in 10.0 mi SE 4.6 mph - N/A   Scattered Clouds
1:15 AM 67.3 °F - 59.7 °F 77% 30.09 in 10.0 mi SE 4.6 mph - N/A   Mostly Cloudy
1:35 AM 66.2 °F - 59.4 °F 79% 30.09 in 10.0 mi South 3.5 mph - N/A   Scattered Clouds
1:55 AM 67.1 °F - 59.9 °F 78% 30.09 in 7.0 mi Calm Calm - N/A   Mostly Cloudy
2:15 AM 66.2 °F - 59.2 °F 78% 30.09 in 10.0 mi Calm Calm - N/A   Mostly Cloudy
2:35 AM 65.7 °F - 59.5 °F 81% 30.09 in 10.0 mi WNW 3.5 mph - N/A   Overcast
2:55 AM 64.8 °F - 59.5 °F 83% 30.09 in 10.0 mi WNW 4.6 mph - N/A   Mostly Cloudy
3:15 AM 64.8 °F - 59.4 °F 83% 30.09 in 10.0 mi WNW 3.5 mph - N/A   Mostly Cloudy
3:35 AM 62.6 °F - 54.9 °F 76% 30.10 in 10.0 mi NW 9.2 mph - N/A   Mostly Cloudy
3:55 AM 60.3 °F - 53.4 °F 78% 30.10 in 10.0 mi WNW 5.8 mph - N/A   Scattered Clouds
4:15 AM 59.4 °F - 52.7 °F 79% 30.10 in 10.0 mi NW 4.6 mph - N/A   Scattered Clouds
4:35 AM 58.5 °F - 51.8 °F 79% 30.11 in 10.0 mi WNW 9.2 mph - N/A   Mostly Cloudy
4:55 AM 57.2 °F - 50.4 °F 78% 30.12 in 10.0 mi NW 9.2 mph - N/A   Overcast
5:15 AM 55.6 °F - 48.4 °F 77% 30.12 in 10.0 mi NW 10.4 mph - N/A   Mostly Cloudy
5:35 AM 54.1 °F - 46.9 °F 77% 30.13 in 10.0 mi NW 12.7 mph 16.1 mph N/A   Mostly Cloudy
5:55 AM 53.2 °F - 46.4 °F 78% 30.14 in 10.0 mi NW 8.1 mph - N/A   Mostly Cloudy
6:15 AM 52.9 °F - 46.4 °F 79% 30.15 in 10.0 mi NW 11.5 mph - N/A   Overcast
6:35 AM 52.7 °F - 45.9 °F 78% 30.16 in 10.0 mi NW 9.2 mph - N/A   Mostly Cloudy
6:55 AM 52.2 °F - 45.1 °F 77% 30.17 in 10.0 mi NW 13.8 mph 18.4 mph N/A   Mostly Cloudy
7:15 AM 51.8 °F - 45.1 °F 78% 30.18 in 10.0 mi NW 9.2 mph - N/A   Overcast
7:35 AM 52.0 °F - 45.1 °F 77% 30.19 in 10.0 mi NNW 10.4 mph - N/A   Mostly Cloudy
7:55 AM 52.0 °F - 45.5 °F 79% 30.19 in 10.0 mi NW 11.5 mph - N/A   Mostly Cloudy
8:15 AM 51.4 °F - 44.6 °F 77% 30.20 in 10.0 mi NW 12.7 mph - N/A   Mostly Cloudy
8:35 AM 50.7 °F - 44.6 °F 80% 30.20 in 10.0 mi NW 15.0 mph - N/A Rain Light Rain
8:55 AM 50.5 °F - 44.2 °F 79% 30.21 in 10.0 mi NW 10.4 mph - N/A   Mostly Cloudy
9:15 AM 50.9 °F - 44.2 °F 78% 30.21 in 10.0 mi NW 12.7 mph - N/A   Mostly Cloudy
9:35 AM 51.3 °F - 44.1 °F 76% 30.20 in 10.0 mi NW 13.8 mph 18.4 mph N/A   Mostly Cloudy
9:55 AM 51.4 °F - 44.6 °F 77% 30.21 in 10.0 mi NW 10.4 mph - N/A   Mostly Cloudy
10:15 AM 53.4 °F - 45.9 °F 76% 30.20 in 10.0 mi NNW 12.7 mph - N/A   Scattered Clouds
10:35 AM 54.5 °F - 46.4 °F 74% 30.20 in 10.0 mi North 11.5 mph - N/A   Clear
10:55 AM 55.2 °F - 46.8 °F 73% 30.21 in 10.0 mi NNW 10.4 mph - N/A   Mostly Cloudy
11:15 AM 55.8 °F - 47.3 °F 73% 30.20 in 10.0 mi NNW 9.2 mph - N/A   Mostly Cloudy
11:35 AM 57.4 °F - 47.5 °F 70% 30.20 in 10.0 mi NW 10.4 mph - N/A   Mostly Cloudy
11:55 AM 59.2 °F - 48.6 °F 68% 30.19 in 10.0 mi NNW 9.2 mph 16.1 mph N/A   Mostly Cloudy
12:15 PM 58.8 °F - 48.0 °F 67% 30.19 in 10.0 mi NW 12.7 mph 17.3 mph N/A   Mostly Cloudy
12:35 PM 58.8 °F - 47.3 °F 66% 30.18 in 10.0 mi NW 12.7 mph - N/A   Overcast
12:55 PM 58.1 °F - 46.9 °F 66% 30.19 in 10.0 mi WNW 11.5 mph 19.6 mph N/A   Overcast
1:15 PM 57.2 °F - 46.8 °F 68% 30.19 in 10.0 mi NW 11.5 mph 17.3 mph N/A   Overcast
1:35 PM 57.2 °F - 47.1 °F 69% 30.19 in 10.0 mi NNW 13.8 mph - N/A   Overcast
1:55 PM 56.5 °F - 46.6 °F 69% 30.19 in 10.0 mi NW 12.7 mph 20.7 mph N/A   Overcast
2:15 PM 55.6 °F - 46.4 °F 71% 30.19 in 10.0 mi NW 15.0 mph - N/A   Overcast
2:35 PM 55.4 °F - 46.4 °F 72% 30.18 in 10.0 mi NW 13.8 mph - N/A   Overcast
2:55 PM 55.6 °F - 46.0 °F 70% 30.18 in 10.0 mi WNW 11.5 mph 19.6 mph N/A   Overcast
3:15 PM 56.1 °F - 45.9 °F 68% 30.18 in 10.0 mi NW 15.0 mph - N/A   Overcast
3:35 PM 56.3 °F - 45.9 °F 68% 30.17 in 10.0 mi NNW 15.0 mph 21.9 mph N/A   Overcast
3:55 PM 55.6 °F - 45.0 °F 67% 30.16 in 10.0 mi NNW 16.1 mph 20.7 mph N/A   Overcast
4:15 PM 55.4 °F - 44.6 °F 67% 30.16 in 10.0 mi NNW 15.0 mph 18.4 mph N/A   Overcast
4:35 PM 54.3 °F - 43.5 °F 67% 30.16 in 10.0 mi NW 15.0 mph 21.9 mph N/A   Overcast
4:55 PM 54.0 °F - 43.7 °F 68% 30.16 in 10.0 mi NNW 15.0 mph - N/A   Overcast
5:15 PM 53.1 °F - 43.0 °F 69% 30.16 in 10.0 mi NW 16.1 mph - N/A   Overcast
5:35 PM 51.8 °F - 42.1 °F 69% 30.16 in 10.0 mi NNW 15.0 mph - N/A   Overcast
5:55 PM 50.4 °F - 41.0 °F 70% 30.17 in 10.0 mi NW 17.3 mph 25.3 mph N/A   Overcast
6:15 PM 49.3 °F - 40.6 °F 72% 30.17 in 10.0 mi NW 15.0 mph - N/A   Overcast
6:35 PM 49.1 °F - 40.5 °F 72% 30.18 in 10.0 mi NW 15.0 mph 20.7 mph N/A   Overcast
6:55 PM 46.8 °F - 41.9 °F 83% 30.19 in 5.0 mi WNW 10.4 mph - 0.01 in Rain Light Rain
7:15 PM 45.7 °F 40.6 °F 41.9 °F 87% 30.19 in 4.0 mi WNW 10.4 mph - 0.02 in Rain Rain
7:35 PM 44.8 °F 37.4 °F 41.9 °F 90% 30.19 in 5.0 mi NW 17.3 mph - 0.04 in Rain Rain
7:55 PM 44.2 °F 37.6 °F 41.2 °F 89% 30.19 in 7.0 mi NW 13.8 mph 18.4 mph 0.06 in Rain Light Rain
8:15 PM 43.7 °F 36.3 °F 40.5 °F 88% 30.20 in 10.0 mi NW 16.1 mph 24.2 mph 0.01 in Rain Light Rain
8:35 PM 43.3 °F 35.5 °F 40.3 °F 89% 30.20 in 10.0 mi NW 17.3 mph 21.9 mph 0.01 in   Light Drizzle
8:55 PM 43.3 °F 36.8 °F 40.3 °F 89% 30.19 in 10.0 mi NW 12.7 mph - 0.01 in   Overcast
9:15 PM 43.0 °F 36.0 °F 40.1 °F 90% 30.19 in 10.0 mi NW 13.8 mph - N/A   Overcast
9:35 PM 42.8 °F 36.6 °F 39.6 °F 88% 30.19 in 10.0 mi NNW 11.5 mph - N/A   Overcast
9:55 PM 42.6 °F 35.6 °F 39.7 °F 90% 30.18 in 10.0 mi NNW 13.8 mph 20.7 mph N/A Rain Rain
10:15 PM 42.3 °F 35.1 °F 39.6 °F 90% 30.18 in 7.0 mi NNW 13.8 mph - N/A Rain Light Rain
10:35 PM 41.9 °F 34.3 °F 39.4 °F 91% 30.17 in 10.0 mi NW 15.0 mph - 0.02 in Rain Rain
10:55 PM 41.9 °F 36.3 °F 39.6 °F 91% 30.17 in 7.0 mi NW 9.2 mph - 0.04 in Rain Light Rain
11:15 PM 41.9 °F 36.9 °F 39.2 °F 90% 30.17 in 7.0 mi NW 8.1 mph 11.5 mph 0.03 in Rain Rain
11:35 PM 41.9 °F 36.9 °F 39.4 °F 91% 30.16 in 7.0 mi WNW 8.1 mph - 0.07 in Rain Rain
11:55 PM 41.5 °F 35.9 °F 39.2 °F 91% 30.15 in 5.0 mi NW 9.2 mph - 0.11 in Rain Heavy Rain